createdAt,value
2022-08-17T00:00:11.000Z,342.0
2022-08-17T00:00:41.000Z,342.0
2022-08-17T00:01:16.000Z,342.0
2022-08-17T00:01:46.000Z,342.0
2022-08-17T00:02:19.000Z,342.0
2022-08-17T00:02:44.000Z,342.0
2022-08-17T00:03:06.000Z,342.0
2022-08-17T00:03:41.000Z,342.0
2022-08-17T00:04:11.000Z,342.0
2022-08-17T00:04:41.000Z,342.0
2022-08-17T00:05:17.000Z,342.0
2022-08-17T00:05:46.000Z,342.0
2022-08-17T00:06:19.000Z,342.0
2022-08-17T00:06:44.000Z,342.0
2022-08-17T00:07:06.000Z,342.0
2022-08-17T00:07:41.000Z,342.0
2022-08-17T00:08:11.000Z,337.0
2022-08-17T00:08:41.000Z,339.0
2022-08-17T00:09:16.000Z,341.0
2022-08-17T00:09:46.000Z,338.0
2022-08-17T00:10:19.000Z,343.0
2022-08-17T00:10:44.000Z,338.0
2022-08-17T00:11:06.000Z,340.0
2022-08-17T00:11:50.000Z,341.0
2022-08-17T00:12:13.000Z,338.0
2022-08-17T00:12:41.000Z,338.0
2022-08-17T00:13:16.000Z,341.0
2022-08-17T00:13:46.000Z,339.0
2022-08-17T00:14:19.000Z,337.0
2022-08-17T00:14:44.000Z,348.0
2022-08-17T00:15:06.000Z,338.0
2022-08-17T00:15:41.000Z,337.0
2022-08-17T00:16:11.000Z,338.0
2022-08-17T00:16:11.000Z,338.0
2022-08-17T00:16:11.000Z,338.0
2022-08-17T00:16:41.000Z,340.0
2022-08-17T00:16:41.000Z,340.0
2022-08-17T00:16:41.000Z,340.0
2022-08-17T00:17:16.000Z,342.0
2022-08-17T00:17:16.000Z,342.0
2022-08-17T00:17:16.000Z,342.0
2022-08-17T00:17:46.000Z,334.0
2022-08-17T00:17:46.000Z,334.0
2022-08-17T00:17:46.000Z,334.0
2022-08-17T00:18:19.000Z,335.0
2022-08-17T00:18:19.000Z,335.0
2022-08-17T00:18:19.000Z,335.0
2022-08-17T00:18:44.000Z,336.0
2022-08-17T00:18:44.000Z,336.0
2022-08-17T00:19:04.000Z,334.0
2022-08-17T00:19:50.000Z,335.0
2022-08-17T00:19:50.000Z,335.0
2022-08-17T00:20:11.000Z,335.0
2022-08-17T00:20:11.000Z,335.0
2022-08-17T00:20:41.000Z,335.0
2022-08-17T00:20:41.000Z,335.0
2022-08-17T00:21:16.000Z,334.0
2022-08-17T00:21:16.000Z,334.0
2022-08-17T00:21:46.000Z,337.0
2022-08-17T00:21:46.000Z,337.0
2022-08-17T00:22:19.000Z,341.0
2022-08-17T00:22:44.000Z,340.0
2022-08-17T00:23:06.000Z,336.0
2022-08-17T00:23:41.000Z,336.0
2022-08-17T00:24:11.000Z,340.0
2022-08-17T00:24:41.000Z,340.0
2022-08-17T00:25:16.000Z,340.0
2022-08-17T00:25:46.000Z,338.0
2022-08-17T00:26:19.000Z,338.0
2022-08-17T00:26:44.000Z,337.0
2022-08-17T00:27:06.000Z,336.0
2022-08-17T00:27:41.000Z,337.0
2022-08-17T00:28:11.000Z,338.0
2022-08-17T00:28:41.000Z,335.0
2022-08-17T00:29:16.000Z,335.0
2022-08-17T00:29:46.000Z,335.0
2022-08-17T00:30:19.000Z,335.0
2022-08-17T00:30:19.000Z,335.0
2022-08-17T00:30:44.000Z,335.0
2022-08-17T00:30:44.000Z,335.0
2022-08-17T00:31:06.000Z,335.0
2022-08-17T00:31:06.000Z,335.0
2022-08-17T00:31:50.000Z,335.0
2022-08-17T00:31:50.000Z,335.0
2022-08-17T00:32:13.000Z,335.0
2022-08-17T00:32:13.000Z,335.0
2022-08-17T00:32:55.000Z,335.0
2022-08-17T00:33:35.000Z,335.0
2022-08-17T00:34:09.000Z,335.0
2022-08-17T00:34:35.000Z,335.0
2022-08-17T00:35:03.000Z,335.0
2022-08-17T00:35:29.000Z,335.0
2022-08-17T00:35:57.000Z,335.0
2022-08-17T00:36:23.000Z,342.0
2022-08-17T00:36:50.000Z,341.0
2022-08-17T00:37:15.000Z,337.0
2022-08-17T00:37:43.000Z,341.0
2022-08-17T00:38:15.000Z,340.0
2022-08-17T00:38:36.000Z,340.0
2022-08-17T00:39:06.000Z,340.0
2022-08-17T00:39:41.000Z,340.0
2022-08-17T00:40:11.000Z,339.0
2022-08-17T00:40:41.000Z,339.0
2022-08-17T00:41:16.000Z,339.0
2022-08-17T00:41:46.000Z,340.0
2022-08-17T00:42:19.000Z,339.0
2022-08-17T00:42:44.000Z,341.0
2022-08-17T00:43:06.000Z,340.0
2022-08-17T00:43:41.000Z,340.0
2022-08-17T00:44:20.000Z,340.0
2022-08-17T00:44:50.000Z,340.0
2022-08-17T00:45:15.000Z,340.0
2022-08-17T00:45:45.000Z,340.0
2022-08-17T00:46:20.000Z,340.0
2022-08-17T00:46:45.000Z,340.0
2022-08-17T00:47:08.000Z,340.0
2022-08-17T00:47:35.000Z,340.0
2022-08-17T00:48:02.000Z,340.0
2022-08-17T00:48:26.000Z,340.0
2022-08-17T00:48:44.000Z,340.0
2022-08-17T00:49:16.000Z,340.0
2022-08-17T00:49:45.000Z,340.0
2022-08-17T00:50:19.000Z,340.0
2022-08-17T00:50:44.000Z,340.0
2022-08-17T00:51:06.000Z,340.0
2022-08-17T00:51:41.000Z,340.0
2022-08-17T00:52:11.000Z,340.0
2022-08-17T00:52:41.000Z,340.0
2022-08-17T00:53:16.000Z,340.0
2022-08-17T00:53:45.000Z,340.0
2022-08-17T00:54:19.000Z,340.0
2022-08-17T00:54:44.000Z,340.0
2022-08-17T00:55:06.000Z,340.0
2022-08-17T00:55:41.000Z,340.0
2022-08-17T00:56:11.000Z,340.0
2022-08-17T00:56:40.000Z,340.0
2022-08-17T00:57:16.000Z,340.0
2022-08-17T00:57:46.000Z,340.0
2022-08-17T00:58:19.000Z,340.0
2022-08-17T00:58:44.000Z,340.0
2022-08-17T00:59:05.000Z,340.0
2022-08-17T00:59:41.000Z,340.0
2022-08-17T01:00:07.000Z,340.0
2022-08-17T01:00:25.000Z,340.0
2022-08-17T01:00:50.000Z,340.0
2022-08-17T01:01:15.000Z,340.0
2022-08-17T01:01:43.000Z,340.0
2022-08-17T01:02:31.000Z,340.0
2022-08-17T01:02:51.000Z,340.0
2022-08-17T01:03:26.000Z,340.0
2022-08-17T01:03:48.000Z,340.0
2022-08-17T01:04:07.000Z,340.0
2022-08-17T01:04:45.000Z,340.0
2022-08-17T01:05:25.000Z,340.0
2022-08-17T01:05:55.000Z,340.0
2022-08-17T01:06:20.000Z,340.0
2022-08-17T01:06:45.000Z,340.0
2022-08-17T01:07:26.000Z,340.0
2022-08-17T01:07:47.000Z,340.0
2022-08-17T01:08:11.000Z,340.0
2022-08-17T01:08:41.000Z,340.0
2022-08-17T01:09:15.000Z,340.0
2022-08-17T01:09:46.000Z,340.0
2022-08-17T01:10:19.000Z,340.0
2022-08-17T01:10:44.000Z,340.0
2022-08-17T01:11:05.000Z,340.0
2022-08-17T01:11:41.000Z,340.0
2022-08-17T01:12:10.000Z,340.0
2022-08-17T01:12:40.000Z,340.0
2022-08-17T01:13:17.000Z,340.0
2022-08-17T01:13:43.000Z,340.0
2022-08-17T01:14:15.000Z,340.0
2022-08-17T01:14:45.000Z,340.0
2022-08-17T01:15:08.000Z,340.0
2022-08-17T01:15:41.000Z,340.0
2022-08-17T01:16:11.000Z,340.0
2022-08-17T01:16:41.000Z,340.0
2022-08-17T01:17:16.000Z,340.0
2022-08-17T01:17:46.000Z,340.0
2022-08-17T01:18:19.000Z,340.0
2022-08-17T01:18:44.000Z,340.0
2022-08-17T01:19:06.000Z,340.0
2022-08-17T01:19:41.000Z,340.0
2022-08-17T01:20:11.000Z,340.0
2022-08-17T01:20:41.000Z,340.0
2022-08-17T01:21:17.000Z,340.0
2022-08-17T01:21:44.000Z,340.0
2022-08-17T01:22:31.000Z,340.0
2022-08-17T01:22:51.000Z,340.0
2022-08-17T01:23:26.000Z,341.0
2022-08-17T01:23:48.000Z,341.0
2022-08-17T01:24:08.000Z,341.0
2022-08-17T01:24:46.000Z,341.0
2022-08-17T01:25:25.000Z,340.0
2022-08-17T01:25:46.000Z,340.0
2022-08-17T01:26:19.000Z,340.0
2022-08-17T01:26:44.000Z,340.0
2022-08-17T01:27:06.000Z,340.0
2022-08-17T01:27:41.000Z,340.0
2022-08-17T01:28:11.000Z,340.0
2022-08-17T01:28:41.000Z,340.0
2022-08-17T01:29:16.000Z,340.0
2022-08-17T01:29:46.000Z,340.0
2022-08-17T01:30:20.000Z,341.0
2022-08-17T01:30:44.000Z,341.0
2022-08-17T01:31:06.000Z,341.0
2022-08-17T01:31:50.000Z,341.0
2022-08-17T01:32:35.000Z,341.0
2022-08-17T01:33:02.000Z,341.0
2022-08-17T01:33:28.000Z,341.0
2022-08-17T01:33:55.000Z,341.0
2022-08-17T01:34:20.000Z,341.0
2022-08-17T01:34:45.000Z,341.0
2022-08-17T01:35:08.000Z,341.0
2022-08-17T01:35:41.000Z,341.0
2022-08-17T01:36:11.000Z,341.0
2022-08-17T01:36:41.000Z,341.0
2022-08-17T01:37:16.000Z,341.0
2022-08-17T01:37:46.000Z,341.0
2022-08-17T01:38:19.000Z,341.0
2022-08-17T01:38:44.000Z,341.0
2022-08-17T01:39:06.000Z,341.0
2022-08-17T01:39:41.000Z,341.0
2022-08-17T01:40:11.000Z,341.0
2022-08-17T01:40:41.000Z,341.0
2022-08-17T01:41:12.000Z,341.0
2022-08-17T01:41:28.000Z,341.0
2022-08-17T01:42:01.000Z,341.0
2022-08-17T01:42:36.000Z,341.0
2022-08-17T01:43:06.000Z,341.0
2022-08-17T01:43:41.000Z,341.0
2022-08-17T01:44:11.000Z,341.0
2022-08-17T01:44:41.000Z,341.0
2022-08-17T01:45:16.000Z,341.0
2022-08-17T01:45:46.000Z,341.0
2022-08-17T01:46:19.000Z,341.0
2022-08-17T01:46:44.000Z,341.0
2022-08-17T01:47:06.000Z,341.0
2022-08-17T01:47:46.000Z,341.0
2022-08-17T01:48:11.000Z,341.0
2022-08-17T01:48:41.000Z,341.0
2022-08-17T01:49:16.000Z,341.0
2022-08-17T01:49:46.000Z,341.0
2022-08-17T01:50:19.000Z,341.0
2022-08-17T01:50:44.000Z,341.0
2022-08-17T01:51:06.000Z,341.0
2022-08-17T01:51:41.000Z,341.0
2022-08-17T01:52:11.000Z,341.0
2022-08-17T01:52:41.000Z,341.0
2022-08-17T01:53:16.000Z,341.0
2022-08-17T01:53:46.000Z,341.0
2022-08-17T01:54:20.000Z,341.0
2022-08-17T01:54:45.000Z,341.0
2022-08-17T01:55:08.000Z,341.0
2022-08-17T01:55:41.000Z,341.0
2022-08-17T01:56:11.000Z,341.0
2022-08-17T01:56:41.000Z,341.0
2022-08-17T01:57:16.000Z,341.0
2022-08-17T01:57:46.000Z,341.0
2022-08-17T01:58:19.000Z,341.0
2022-08-17T01:58:44.000Z,341.0
2022-08-17T01:59:06.000Z,341.0
2022-08-17T01:59:41.000Z,341.0
2022-08-17T02:00:11.000Z,341.0
2022-08-17T02:00:41.000Z,341.0
2022-08-17T02:01:11.000Z,341.0
2022-08-17T02:01:35.000Z,341.0
2022-08-17T16:04:11.000Z,304.0
2022-08-17T16:04:41.000Z,210.0
2022-08-17T16:05:16.000Z,222.0
2022-08-17T16:05:46.000Z,199.0
2022-08-17T16:06:16.000Z,274.0
2022-08-17T16:06:44.000Z,234.0
2022-08-17T16:07:02.000Z,212.0
2022-08-17T16:07:29.000Z,212.0
2022-08-17T16:07:55.000Z,200.0
2022-08-17T16:08:22.000Z,196.0
2022-08-17T16:08:47.000Z,277.0
2022-08-17T16:09:16.000Z,186.0
2022-08-17T16:09:46.000Z,260.0
2022-08-17T16:10:16.000Z,228.0
2022-08-17T16:10:44.000Z,235.0
2022-08-17T16:11:02.000Z,288.0
2022-08-17T16:11:19.000Z,262.0
2022-08-17T16:11:46.000Z,232.0
2022-08-17T16:12:11.000Z,182.0
2022-08-17T16:12:41.000Z,234.0
2022-08-17T16:13:16.000Z,226.0
2022-08-17T16:13:46.000Z,271.0
2022-08-17T16:14:25.000Z,37.0
2022-08-17T16:14:52.000Z,295.0
2022-08-17T16:15:18.000Z,29.0
2022-08-17T16:15:45.000Z,2.0
2022-08-17T16:16:10.000Z,220.0
2022-08-17T16:16:41.000Z,297.0
2022-08-17T16:17:15.000Z,256.0
2022-08-17T16:17:47.000Z,283.0
2022-08-17T16:18:19.000Z,170.0
2022-08-17T16:18:44.000Z,207.0
2022-08-17T16:19:05.000Z,195.0
2022-08-17T16:19:36.000Z,224.0
2022-08-17T16:20:10.000Z,194.0
2022-08-17T16:20:41.000Z,212.0
2022-08-17T16:21:16.000Z,235.0
2022-08-17T16:21:55.000Z,216.0
2022-08-17T16:22:18.000Z,191.0
2022-08-17T16:22:45.000Z,223.0
2022-08-17T16:23:10.000Z,215.0
2022-08-17T16:23:35.000Z,218.0
2022-08-17T16:24:11.000Z,227.0
2022-08-17T16:24:50.000Z,217.0
2022-08-17T16:25:15.000Z,172.0
2022-08-17T16:25:45.000Z,213.0
2022-08-17T16:26:15.000Z,204.0
2022-08-17T16:26:44.000Z,193.0
2022-08-17T16:27:05.000Z,216.0
2022-08-17T16:27:35.000Z,200.0
2022-08-17T16:28:06.000Z,236.0
2022-08-17T16:28:26.000Z,200.0
2022-08-17T16:28:47.000Z,205.0
2022-08-17T16:29:16.000Z,200.0
2022-08-17T16:29:46.000Z,246.0
2022-08-17T16:30:16.000Z,211.0
2022-08-17T16:30:44.000Z,232.0
2022-08-17T16:31:15.000Z,222.0
2022-08-17T16:31:45.000Z,192.0
2022-08-17T16:32:11.000Z,209.0
2022-08-17T16:32:41.000Z,185.0
2022-08-17T16:33:16.000Z,233.0
2022-08-17T16:33:46.000Z,295.0
2022-08-17T16:34:16.000Z,323.0
2022-08-17T16:34:44.000Z,354.0
2022-08-17T16:35:02.000Z,238.0
2022-08-17T16:35:19.000Z,212.0
2022-08-17T16:35:46.000Z,186.0
2022-08-17T16:36:11.000Z,128.0
2022-08-17T16:36:41.000Z,208.0
2022-08-17T16:37:31.000Z,200.0
2022-08-17T16:38:02.000Z,198.0
2022-08-17T16:38:36.000Z,196.0
2022-08-17T16:39:06.000Z,316.0
2022-08-17T16:39:36.000Z,169.0
2022-08-17T16:40:11.000Z,225.0
2022-08-17T16:40:41.000Z,226.0
2022-08-17T16:41:16.000Z,323.0
2022-08-17T16:41:46.000Z,268.0
2022-08-17T16:42:16.000Z,258.0
2022-08-17T16:42:44.000Z,303.0
2022-08-17T16:43:06.000Z,203.0
2022-08-17T16:43:36.000Z,217.0
2022-08-17T16:44:20.000Z,346.0
2022-08-17T16:44:41.000Z,215.0
2022-08-17T16:45:16.000Z,264.0
2022-08-17T16:45:46.000Z,335.0
2022-08-17T16:46:16.000Z,109.0
2022-08-17T16:46:44.000Z,308.0
2022-08-17T16:47:06.000Z,167.0
2022-08-17T16:47:36.000Z,188.0
2022-08-17T16:48:11.000Z,204.0
2022-08-17T16:48:41.000Z,241.0
2022-08-17T16:49:16.000Z,242.0
2022-08-17T16:49:46.000Z,226.0
2022-08-17T16:50:16.000Z,201.0
2022-08-17T16:50:44.000Z,206.0
2022-08-17T16:51:06.000Z,215.0
2022-08-17T16:51:36.000Z,247.0
2022-08-17T16:52:11.000Z,293.0
2022-08-17T16:52:41.000Z,273.0
2022-08-17T16:53:16.000Z,210.0
2022-08-17T16:53:47.000Z,289.0
2022-08-17T16:54:16.000Z,191.0
2022-08-17T16:54:44.000Z,350.0
2022-08-17T16:55:02.000Z,2.0
2022-08-17T16:55:19.000Z,274.0
2022-08-17T16:55:46.000Z,334.0
2022-08-17T16:56:11.000Z,284.0
2022-08-17T16:56:38.000Z,153.0
2022-08-17T16:57:11.000Z,296.0
2022-08-17T16:57:29.000Z,143.0
2022-08-17T16:57:55.000Z,196.0
2022-08-17T16:58:18.000Z,252.0
2022-08-17T16:58:45.000Z,264.0
2022-08-17T16:59:19.000Z,174.0
2022-08-17T16:59:46.000Z,325.0
2022-08-17T17:00:11.000Z,171.0
2022-08-17T17:00:41.000Z,210.0
2022-08-17T17:01:16.000Z,86.0
2022-08-17T17:01:46.000Z,191.0
2022-08-17T17:02:16.000Z,229.0
2022-08-17T17:02:44.000Z,207.0
2022-08-17T17:03:06.000Z,204.0
2022-08-17T17:03:36.000Z,211.0
2022-08-17T17:04:11.000Z,311.0
2022-08-17T17:04:41.000Z,278.0
2022-08-17T17:05:25.000Z,203.0
2022-08-17T17:05:55.000Z,159.0
2022-08-17T17:06:18.000Z,344.0
2022-08-17T17:06:45.000Z,285.0
2022-08-17T17:07:08.000Z,317.0
2022-08-17T17:07:35.000Z,289.0
2022-08-17T17:08:11.000Z,238.0
2022-08-17T17:08:50.000Z,229.0
2022-08-17T17:09:15.000Z,211.0
2022-08-17T17:09:42.000Z,242.0
2022-08-17T17:10:10.000Z,230.0
2022-08-17T17:10:36.000Z,349.0
2022-08-17T17:11:02.000Z,211.0
2022-08-17T17:11:35.000Z,231.0
2022-08-17T17:12:11.000Z,195.0
2022-08-17T17:12:41.000Z,268.0
2022-08-17T17:13:16.000Z,298.0
2022-08-17T17:13:46.000Z,303.0
2022-08-17T17:14:16.000Z,228.0
2022-08-17T17:14:44.000Z,217.0
2022-08-17T17:15:06.000Z,240.0
2022-08-17T17:15:36.000Z,245.0
2022-08-17T17:16:11.000Z,264.0
2022-08-17T17:16:41.000Z,311.0
2022-08-17T17:17:16.000Z,334.0
2022-08-17T17:17:46.000Z,224.0
2022-08-17T17:18:16.000Z,200.0
2022-08-17T17:18:44.000Z,145.0
2022-08-17T17:19:06.000Z,4.0
2022-08-17T17:19:36.000Z,216.0
2022-08-17T17:20:11.000Z,219.0
2022-08-17T17:20:41.000Z,192.0
2022-08-17T17:21:16.000Z,183.0
2022-08-17T17:21:46.000Z,222.0
2022-08-17T17:22:16.000Z,231.0
2022-08-17T17:22:44.000Z,167.0
2022-08-17T17:23:06.000Z,232.0
2022-08-17T17:23:36.000Z,232.0
2022-08-17T17:24:11.000Z,221.0
2022-08-17T17:24:42.000Z,230.0
2022-08-17T17:25:16.000Z,214.0
2022-08-17T17:25:55.000Z,222.0
2022-08-17T17:26:16.000Z,96.0
2022-08-17T17:26:44.000Z,215.0
2022-08-17T17:27:06.000Z,190.0
2022-08-17T17:27:36.000Z,198.0
2022-08-17T17:28:11.000Z,226.0
2022-08-17T17:28:41.000Z,211.0
2022-08-17T17:29:16.000Z,229.0
2022-08-17T17:29:46.000Z,217.0
2022-08-17T17:30:16.000Z,287.0
2022-08-17T17:30:44.000Z,314.0
2022-08-17T17:31:06.000Z,276.0
2022-08-17T17:31:36.000Z,202.0
2022-08-17T17:32:11.000Z,202.0
2022-08-17T17:32:41.000Z,160.0
2022-08-17T17:33:16.000Z,159.0
2022-08-17T17:33:46.000Z,219.0
2022-08-17T17:34:19.000Z,1.0
2022-08-17T17:34:44.000Z,205.0
2022-08-17T17:35:06.000Z,203.0
2022-08-17T17:35:36.000Z,320.0
2022-08-17T17:36:11.000Z,178.0
2022-08-17T17:36:41.000Z,233.0
2022-08-17T17:37:16.000Z,232.0
2022-08-17T17:37:46.000Z,213.0
2022-08-17T17:38:16.000Z,269.0
2022-08-17T17:38:44.000Z,294.0
2022-08-17T17:39:06.000Z,267.0
2022-08-17T17:39:36.000Z,322.0
2022-08-17T17:40:11.000Z,299.0
2022-08-17T17:40:41.000Z,325.0
2022-08-17T17:41:15.000Z,269.0
2022-08-17T17:41:46.000Z,340.0
2022-08-17T17:42:31.000Z,277.0
2022-08-17T17:43:06.000Z,195.0
2022-08-17T17:43:45.000Z,222.0
2022-08-17T17:44:10.000Z,359.0
2022-08-17T17:44:41.000Z,336.0
2022-08-17T17:45:16.000Z,240.0
2022-08-17T17:45:46.000Z,300.0
2022-08-17T17:46:16.000Z,275.0
2022-08-17T17:46:44.000Z,313.0
2022-08-17T17:47:05.000Z,290.0
2022-08-17T17:47:36.000Z,312.0
2022-08-17T17:48:11.000Z,305.0
2022-08-17T17:48:41.000Z,200.0
2022-08-17T17:49:16.000Z,248.0
2022-08-17T17:49:45.000Z,183.0
2022-08-17T17:49:45.000Z,183.0
2022-08-17T17:50:17.000Z,199.0
2022-08-17T17:50:17.000Z,199.0
2022-08-17T17:50:45.000Z,195.0
2022-08-17T17:50:45.000Z,195.0
2022-08-17T17:51:08.000Z,176.0
2022-08-17T17:51:08.000Z,176.0
2022-08-17T17:51:35.000Z,234.0
2022-08-17T17:51:35.000Z,234.0
2022-08-17T17:51:52.000Z,210.0
2022-08-17T17:52:27.000Z,179.0
2022-08-17T17:52:48.000Z,300.0
2022-08-17T17:53:16.000Z,244.0
2022-08-17T17:53:45.000Z,160.0
2022-08-17T17:54:16.000Z,288.0
2022-08-17T17:54:44.000Z,202.0
2022-08-17T17:55:06.000Z,198.0
2022-08-17T17:55:36.000Z,200.0
2022-08-17T17:56:11.000Z,185.0
2022-08-17T17:56:40.000Z,200.0
2022-08-17T17:57:15.000Z,184.0
2022-08-17T17:57:47.000Z,199.0
2022-08-17T17:58:17.000Z,279.0
2022-08-17T17:58:45.000Z,225.0
2022-08-17T17:59:05.000Z,239.0
2022-08-17T17:59:36.000Z,256.0
2022-08-17T18:00:11.000Z,240.0
2022-08-17T18:00:41.000Z,271.0
2022-08-17T18:01:16.000Z,225.0
2022-08-17T18:01:46.000Z,182.0
2022-08-17T18:02:20.000Z,201.0
2022-08-17T18:02:44.000Z,254.0
2022-08-17T18:03:02.000Z,176.0
2022-08-17T18:03:19.000Z,211.0
2022-08-17T18:03:46.000Z,220.0
2022-08-17T18:04:11.000Z,221.0
2022-08-17T18:04:50.000Z,203.0
2022-08-17T18:05:15.000Z,184.0
2022-08-17T18:05:42.000Z,257.0
2022-08-17T18:06:10.000Z,178.0
2022-08-17T18:06:35.000Z,213.0
2022-08-17T18:07:02.000Z,170.0
2022-08-17T18:07:29.000Z,198.0
2022-08-17T18:07:55.000Z,228.0
2022-08-17T18:08:22.000Z,249.0
2022-08-17T18:09:01.000Z,197.0
2022-08-17T18:09:31.000Z,231.0
2022-08-17T18:10:01.000Z,199.0
2022-08-17T18:10:36.000Z,249.0
2022-08-17T18:11:06.000Z,312.0
2022-08-17T18:11:36.000Z,207.0
2022-08-17T18:12:11.000Z,227.0
2022-08-17T18:12:40.000Z,183.0
2022-08-17T18:13:16.000Z,230.0
2022-08-17T18:13:46.000Z,194.0
2022-08-17T18:14:16.000Z,235.0
2022-08-17T18:14:44.000Z,164.0
2022-08-17T18:15:02.000Z,198.0
2022-08-17T18:15:19.000Z,251.0
2022-08-17T18:15:46.000Z,222.0
2022-08-17T18:16:11.000Z,217.0
2022-08-17T18:16:41.000Z,193.0
2022-08-17T18:17:11.000Z,267.0
2022-08-17T18:17:26.000Z,281.0
2022-08-17T18:17:46.000Z,232.0
2022-08-17T18:18:16.000Z,211.0
2022-08-17T18:18:44.000Z,202.0
2022-08-17T18:19:06.000Z,180.0
2022-08-17T18:19:36.000Z,218.0
2022-08-17T18:20:11.000Z,257.0
2022-08-17T18:20:41.000Z,199.0
2022-08-17T18:21:10.000Z,198.0
2022-08-17T18:21:26.000Z,194.0
2022-08-17T18:21:46.000Z,193.0
2022-08-17T18:22:16.000Z,65.0
2022-08-17T18:22:44.000Z,12.0
2022-08-17T18:23:06.000Z,166.0
2022-08-17T18:23:36.000Z,233.0
2022-08-17T18:24:11.000Z,231.0
2022-08-17T18:24:41.000Z,42.0
2022-08-17T18:25:16.000Z,231.0
2022-08-17T18:25:46.000Z,174.0
2022-08-17T18:26:16.000Z,180.0
2022-08-17T18:26:44.000Z,227.0
2022-08-17T18:27:06.000Z,214.0
2022-08-17T18:27:36.000Z,130.0
2022-08-17T18:28:11.000Z,18.0
2022-08-17T18:28:41.000Z,17.0
2022-08-17T18:29:11.000Z,196.0
2022-08-17T18:29:27.000Z,207.0
2022-08-17T18:29:46.000Z,154.0
2022-08-17T18:30:16.000Z,88.0
2022-08-17T18:30:44.000Z,341.0
2022-08-17T18:31:06.000Z,276.0
2022-08-17T18:31:36.000Z,232.0
2022-08-17T18:32:11.000Z,308.0
2022-08-17T18:32:11.000Z,308.0
2022-08-17T18:32:41.000Z,312.0
2022-08-17T18:32:41.000Z,312.0
2022-08-17T18:33:11.000Z,178.0
2022-08-17T18:33:11.000Z,178.0
2022-08-17T18:33:46.000Z,152.0
2022-08-17T18:33:46.000Z,152.0
2022-08-17T18:34:16.000Z,326.0
2022-08-17T18:34:16.000Z,326.0
2022-08-17T18:34:44.000Z,326.0
2022-08-17T18:35:19.000Z,289.0
2022-08-17T18:35:44.000Z,300.0
2022-08-17T18:36:11.000Z,42.0
2022-08-17T18:36:41.000Z,231.0
2022-08-17T18:37:11.000Z,211.0
2022-08-17T18:37:46.000Z,180.0
2022-08-17T18:38:16.000Z,331.0
2022-08-17T18:38:44.000Z,304.0
2022-08-17T18:39:15.000Z,226.0
2022-08-17T18:39:45.000Z,249.0
2022-08-17T18:40:10.000Z,337.0
2022-08-17T18:40:38.000Z,287.0
2022-08-17T18:41:02.000Z,241.0
2022-08-17T18:41:26.000Z,271.0
2022-08-17T18:41:55.000Z,250.0
2022-08-17T18:42:36.000Z,214.0
2022-08-17T18:42:52.000Z,236.0
2022-08-17T18:43:18.000Z,351.0
2022-08-17T18:43:45.000Z,9.0
2022-08-17T18:44:10.000Z,170.0
2022-08-17T18:44:40.000Z,189.0
2022-08-17T18:45:11.000Z,188.0
2022-08-17T18:45:55.000Z,21.0
2022-08-17T18:46:16.000Z,56.0
2022-08-17T18:46:44.000Z,249.0
2022-08-17T18:47:06.000Z,315.0
2022-08-17T18:47:36.000Z,307.0
2022-08-17T18:48:11.000Z,339.0
2022-08-17T18:48:41.000Z,304.0
2022-08-17T18:49:11.000Z,288.0
2022-08-17T18:49:46.000Z,290.0
2022-08-17T18:50:16.000Z,292.0
2022-08-17T18:50:44.000Z,219.0
2022-08-17T18:51:06.000Z,304.0
2022-08-17T18:51:36.000Z,309.0
2022-08-17T18:52:11.000Z,348.0
2022-08-17T18:52:50.000Z,336.0
2022-08-17T18:53:13.000Z,317.0
2022-08-17T18:53:42.000Z,288.0
2022-08-17T18:54:10.000Z,236.0
2022-08-17T18:54:35.000Z,305.0
2022-08-17T18:55:02.000Z,280.0
2022-08-17T18:55:20.000Z,291.0
2022-08-17T18:55:44.000Z,357.0
2022-08-17T18:56:11.000Z,257.0
2022-08-17T18:56:41.000Z,200.0
2022-08-17T18:57:11.000Z,190.0
2022-08-17T18:57:46.000Z,144.0
2022-08-17T18:58:16.000Z,135.0
2022-08-17T18:58:44.000Z,51.0
2022-08-17T18:59:06.000Z,187.0
2022-08-17T18:59:36.000Z,352.0
2022-08-17T19:00:11.000Z,246.0
2022-08-17T19:00:41.000Z,272.0
2022-08-17T19:01:11.000Z,292.0
2022-08-17T19:01:55.000Z,236.0
2022-08-17T19:02:18.000Z,236.0
2022-08-17T19:02:45.000Z,236.0
2022-08-17T19:03:09.000Z,236.0
2022-08-17T19:03:35.000Z,164.0
2022-08-17T19:04:11.000Z,157.0
2022-08-17T19:04:41.000Z,153.0
2022-08-17T19:05:11.000Z,150.0
2022-08-17T19:05:31.000Z,172.0
2022-08-17T19:05:46.000Z,172.0
2022-08-17T19:06:16.000Z,165.0
2022-08-17T19:06:44.000Z,157.0
2022-08-17T19:07:07.000Z,141.0
2022-08-17T19:07:36.000Z,145.0
2022-08-17T19:08:11.000Z,145.0
2022-08-17T19:08:41.000Z,146.0
2022-08-17T19:09:11.000Z,146.0
2022-08-17T19:09:26.000Z,146.0
2022-08-17T19:09:46.000Z,146.0
2022-08-17T19:10:25.000Z,146.0
2022-08-17T19:10:52.000Z,146.0
2022-08-17T19:11:18.000Z,146.0
2022-08-17T19:11:45.000Z,146.0
2022-08-17T19:12:10.000Z,146.0
2022-08-17T19:12:38.000Z,146.0
2022-08-17T19:13:25.000Z,136.0
2022-08-17T19:13:55.000Z,141.0
2022-08-17T19:14:18.000Z,137.0
2022-08-17T19:14:44.000Z,134.0
2022-08-17T19:15:06.000Z,204.0
2022-08-17T19:15:36.000Z,226.0
2022-08-17T19:16:11.000Z,189.0
2022-08-17T19:16:41.000Z,219.0
2022-08-17T19:17:16.000Z,239.0
2022-08-17T19:17:46.000Z,266.0
2022-08-17T19:18:16.000Z,227.0
2022-08-17T19:18:44.000Z,225.0
2022-08-17T19:19:06.000Z,233.0
2022-08-17T19:19:36.000Z,229.0
2022-08-17T19:20:20.000Z,219.0
2022-08-17T19:20:50.000Z,209.0
2022-08-17T19:21:13.000Z,228.0
2022-08-17T19:21:42.000Z,186.0
2022-08-17T19:22:10.000Z,183.0
2022-08-17T19:22:35.000Z,183.0
2022-08-17T19:23:02.000Z,183.0
2022-08-17T19:23:19.000Z,182.0
2022-08-17T19:23:44.000Z,198.0
2022-08-17T19:24:11.000Z,197.0
2022-08-17T19:24:41.000Z,196.0
2022-08-17T19:25:11.000Z,196.0
2022-08-17T19:25:26.000Z,196.0
2022-08-17T19:25:46.000Z,164.0
2022-08-17T19:26:16.000Z,176.0
2022-08-17T19:26:44.000Z,176.0
2022-08-17T19:27:20.000Z,177.0
2022-08-17T19:27:44.000Z,207.0
2022-08-17T19:28:11.000Z,196.0
2022-08-17T19:28:41.000Z,235.0
2022-08-17T19:29:20.000Z,198.0
2022-08-17T19:29:47.000Z,162.0
2022-08-17T19:30:19.000Z,168.0
2022-08-17T19:30:44.000Z,170.0
2022-08-17T19:31:02.000Z,173.0
2022-08-17T19:31:29.000Z,173.0
2022-08-17T19:32:00.000Z,183.0
2022-08-17T19:32:27.000Z,204.0
2022-08-17T19:32:47.000Z,194.0
2022-08-17T19:33:11.000Z,182.0
2022-08-17T19:33:26.000Z,181.0
2022-08-17T19:33:46.000Z,182.0
2022-08-17T19:34:16.000Z,182.0
2022-08-17T19:34:44.000Z,181.0
2022-08-17T19:35:06.000Z,180.0
2022-08-17T19:35:36.000Z,177.0
2022-08-17T19:36:11.000Z,178.0
2022-08-17T19:36:41.000Z,178.0
2022-08-17T19:37:11.000Z,177.0
2022-08-17T19:37:26.000Z,177.0
2022-08-17T19:37:46.000Z,178.0
2022-08-17T19:38:16.000Z,178.0
2022-08-17T19:38:44.000Z,178.0
2022-08-17T19:39:02.000Z,177.0
2022-08-17T19:39:29.000Z,177.0
2022-08-17T19:40:06.000Z,186.0
2022-08-17T19:40:50.000Z,185.0
2022-08-17T19:41:13.000Z,183.0
2022-08-17T19:41:42.000Z,183.0
2022-08-17T19:42:10.000Z,183.0
2022-08-17T19:42:36.000Z,185.0
2022-08-17T19:43:06.000Z,211.0
2022-08-17T19:43:36.000Z,192.0
2022-08-17T19:44:11.000Z,191.0
2022-08-17T19:44:41.000Z,191.0
2022-08-17T19:45:11.000Z,191.0
2022-08-17T19:45:46.000Z,199.0
2022-08-17T19:46:16.000Z,195.0
2022-08-17T19:46:44.000Z,194.0
2022-08-17T19:47:06.000Z,217.0
2022-08-17T19:47:36.000Z,211.0
2022-08-17T19:48:06.000Z,164.0
2022-08-17T19:48:50.000Z,188.0
2022-08-17T19:49:13.000Z,193.0
2022-08-17T19:49:42.000Z,216.0
2022-08-17T19:50:10.000Z,202.0
2022-08-17T19:50:35.000Z,202.0
2022-08-17T19:51:02.000Z,203.0
2022-08-17T19:51:29.000Z,202.0
2022-08-17T19:51:51.000Z,202.0
2022-08-17T19:52:26.000Z,215.0
2022-08-17T19:52:47.000Z,204.0
2022-08-17T19:53:11.000Z,156.0
2022-08-17T19:53:46.000Z,155.0
2022-08-17T19:54:16.000Z,157.0
2022-08-17T19:54:44.000Z,157.0
2022-08-17T19:55:06.000Z,158.0
2022-08-17T19:55:36.000Z,188.0
2022-08-17T19:56:11.000Z,188.0
2022-08-17T19:56:41.000Z,187.0
2022-08-17T19:57:20.000Z,192.0
2022-08-17T19:57:47.000Z,194.0
2022-08-17T19:58:19.000Z,250.0
2022-08-17T19:58:44.000Z,226.0
2022-08-17T19:59:02.000Z,334.0
2022-08-17T19:59:29.000Z,208.0
2022-08-17T20:00:11.000Z,188.0
2022-08-17T20:00:50.000Z,186.0
2022-08-17T20:01:11.000Z,186.0
2022-08-17T20:01:46.000Z,187.0
2022-08-17T20:02:16.000Z,199.0